sensor_id;sensor_type;location;lat;lon;timestamp;temperature;humidity
64878;HTU21D;51370;45.144;36.784;2022-08-03T00:02:25;24.25;80.66
64878;HTU21D;51370;45.144;36.784;2022-08-03T00:04:51;24.25;80.73
64878;HTU21D;51370;45.144;36.784;2022-08-03T00:07:17;24.28;80.76
64878;HTU21D;51370;45.144;36.784;2022-08-03T00:09:43;24.28;80.81
64878;HTU21D;51370;45.144;36.784;2022-08-03T00:12:10;24.29;80.76
64878;HTU21D;51370;45.144;36.784;2022-08-03T00:14:36;24.30;80.82
64878;HTU21D;51370;45.144;36.784;2022-08-03T00:17:02;24.29;80.88
64878;HTU21D;51370;45.144;36.784;2022-08-03T00:19:28;24.29;80.89
64878;HTU21D;51370;45.144;36.784;2022-08-03T00:21:54;24.31;80.89
64878;HTU21D;51370;45.144;36.784;2022-08-03T00:24:20;24.30;80.89
64878;HTU21D;51370;45.144;36.784;2022-08-03T00:26:46;24.31;80.87
64878;HTU21D;51370;45.144;36.784;2022-08-03T00:29:12;24.30;80.85
64878;HTU21D;51370;45.144;36.784;2022-08-03T00:31:38;24.32;80.88
64878;HTU21D;51370;45.144;36.784;2022-08-03T00:34:05;24.33;80.98
64878;HTU21D;51370;45.144;36.784;2022-08-03T00:36:31;24.32;81.05
64878;HTU21D;51370;45.144;36.784;2022-08-03T00:38:57;24.32;81.04
64878;HTU21D;51370;45.144;36.784;2022-08-03T00:41:23;24.33;81.12
64878;HTU21D;51370;45.144;36.784;2022-08-03T00:43:49;24.33;81.23
64878;HTU21D;51370;45.144;36.784;2022-08-03T00:46:15;24.34;81.31
64878;HTU21D;51370;45.144;36.784;2022-08-03T00:48:42;24.35;81.39
64878;HTU21D;51370;45.144;36.784;2022-08-03T00:51:09;24.40;81.36
64878;HTU21D;51370;45.144;36.784;2022-08-03T00:53:35;24.41;81.36
64878;HTU21D;51370;45.144;36.784;2022-08-03T00:56:01;24.41;81.33
64878;HTU21D;51370;45.144;36.784;2022-08-03T00:58:27;24.40;81.27
64878;HTU21D;51370;45.144;36.784;2022-08-03T01:00:53;24.36;81.22
64878;HTU21D;51370;45.144;36.784;2022-08-03T01:03:20;24.35;81.17
64878;HTU21D;51370;45.144;36.784;2022-08-03T01:05:59;24.27;80.98
64878;HTU21D;51370;45.144;36.784;2022-08-03T01:08:51;24.19;81.02
64878;HTU21D;51370;45.144;36.784;2022-08-03T01:11:40;24.05;81.24
64878;HTU21D;51370;45.144;36.784;2022-08-03T01:14:15;24.06;81.39
64878;HTU21D;51370;45.144;36.784;2022-08-03T01:17:01;24.03;81.25
64878;HTU21D;51370;45.144;36.784;2022-08-03T01:31:09;24.05;81.75
64878;HTU21D;51370;45.144;36.784;2022-08-03T01:33:47;24.08;81.59
64878;HTU21D;51370;45.144;36.784;2022-08-03T01:36:28;24.09;81.63
64878;HTU21D;51370;45.144;36.784;2022-08-03T01:38:57;24.14;81.86
64878;HTU21D;51370;45.144;36.784;2022-08-03T01:41:29;24.14;81.97
64878;HTU21D;51370;45.144;36.784;2022-08-03T01:43:59;24.14;82.13
64878;HTU21D;51370;45.144;36.784;2022-08-03T01:46:26;24.16;82.24
64878;HTU21D;51370;45.144;36.784;2022-08-03T01:48:53;24.16;82.41
64878;HTU21D;51370;45.144;36.784;2022-08-03T01:51:21;24.17;82.43
64878;HTU21D;51370;45.144;36.784;2022-08-03T01:53:49;24.21;82.43
64878;HTU21D;51370;45.144;36.784;2022-08-03T01:56:18;24.24;82.44
64878;HTU21D;51370;45.144;36.784;2022-08-03T01:58:47;24.26;82.39
64878;HTU21D;51370;45.144;36.784;2022-08-03T02:01:15;24.29;82.43
64878;HTU21D;51370;45.144;36.784;2022-08-03T02:03:43;24.29;82.46
64878;HTU21D;51370;45.144;36.784;2022-08-03T02:06:11;24.29;82.49
64878;HTU21D;51370;45.144;36.784;2022-08-03T02:08:39;24.27;82.53
64878;HTU21D;51370;45.144;36.784;2022-08-03T02:11:06;24.27;82.57
64878;HTU21D;51370;45.144;36.784;2022-08-03T02:13:33;24.27;82.56
64878;HTU21D;51370;45.144;36.784;2022-08-03T02:16:04;24.28;82.45
64878;HTU21D;51370;45.144;36.784;2022-08-03T02:18:31;24.27;82.58
64878;HTU21D;51370;45.144;36.784;2022-08-03T02:21:02;24.26;82.58
64878;HTU21D;51370;45.144;36.784;2022-08-03T02:23:30;24.25;82.75
64878;HTU21D;51370;45.144;36.784;2022-08-03T02:26:02;24.25;82.62
64878;HTU21D;51370;45.144;36.784;2022-08-03T02:28:36;24.21;82.62
64878;HTU21D;51370;45.144;36.784;2022-08-03T02:31:06;24.24;82.71
64878;HTU21D;51370;45.144;36.784;2022-08-03T02:33:40;24.21;82.77
64878;HTU21D;51370;45.144;36.784;2022-08-03T02:36:07;24.21;82.87
64878;HTU21D;51370;45.144;36.784;2022-08-03T02:38:38;24.21;82.77
64878;HTU21D;51370;45.144;36.784;2022-08-03T02:41:15;24.18;82.67
64878;HTU21D;51370;45.144;36.784;2022-08-03T02:43:44;24.18;82.89
64878;HTU21D;51370;45.144;36.784;2022-08-03T02:46:13;24.19;82.95
64878;HTU21D;51370;45.144;36.784;2022-08-03T02:48:42;24.18;83.10
64878;HTU21D;51370;45.144;36.784;2022-08-03T02:51:09;24.17;83.11
64878;HTU21D;51370;45.144;36.784;2022-08-03T02:53:36;24.17;83.10
64878;HTU21D;51370;45.144;36.784;2022-08-03T02:56:03;24.17;83.08
64878;HTU21D;51370;45.144;36.784;2022-08-03T02:58:30;24.15;83.15
64878;HTU21D;51370;45.144;36.784;2022-08-03T03:00:57;24.15;83.21
64878;HTU21D;51370;45.144;36.784;2022-08-03T03:03:24;24.15;83.19
64878;HTU21D;51370;45.144;36.784;2022-08-03T03:05:51;24.16;83.14
64878;HTU21D;51370;45.144;36.784;2022-08-03T03:08:18;24.19;83.10
64878;HTU21D;51370;45.144;36.784;2022-08-03T03:10:46;24.19;83.08
64878;HTU21D;51370;45.144;36.784;2022-08-03T03:13:14;24.20;83.03
64878;HTU21D;51370;45.144;36.784;2022-08-03T03:15:42;24.21;83.07
64878;HTU21D;51370;45.144;36.784;2022-08-03T03:18:09;24.21;83.07
64878;HTU21D;51370;45.144;36.784;2022-08-03T03:20:36;24.21;83.04
64878;HTU21D;51370;45.144;36.784;2022-08-03T03:23:04;24.25;83.07
64878;HTU21D;51370;45.144;36.784;2022-08-03T03:25:31;24.26;83.12
64878;HTU21D;51370;45.144;36.784;2022-08-03T03:27:59;24.29;83.07
64878;HTU21D;51370;45.144;36.784;2022-08-03T03:30:25;24.30;83.05
64878;HTU21D;51370;45.144;36.784;2022-08-03T03:32:52;24.33;83.09
64878;HTU21D;51370;45.144;36.784;2022-08-03T03:35:18;24.39;83.06
64878;HTU21D;51370;45.144;36.784;2022-08-03T03:37:45;24.42;83.04
64878;HTU21D;51370;45.144;36.784;2022-08-03T03:40:11;24.45;82.98
64878;HTU21D;51370;45.144;36.784;2022-08-03T03:42:38;24.47;83.04
64878;HTU21D;51370;45.144;36.784;2022-08-03T03:45:06;24.50;82.98
64878;HTU21D;51370;45.144;36.784;2022-08-03T03:47:35;24.54;82.90
64878;HTU21D;51370;45.144;36.784;2022-08-03T03:50:04;24.57;82.98
64878;HTU21D;51370;45.144;36.784;2022-08-03T03:52:31;24.59;83.02
64878;HTU21D;51370;45.144;36.784;2022-08-03T03:54:57;24.62;83.04
64878;HTU21D;51370;45.144;36.784;2022-08-03T03:57:23;24.63;83.04
64878;HTU21D;51370;45.144;36.784;2022-08-03T03:59:50;24.65;83.07
64878;HTU21D;51370;45.144;36.784;2022-08-03T04:02:17;24.68;83.10
64878;HTU21D;51370;45.144;36.784;2022-08-03T04:04:43;24.70;83.11
64878;HTU21D;51370;45.144;36.784;2022-08-03T04:07:45;24.74;83.09
64878;HTU21D;51370;45.144;36.784;2022-08-03T04:10:35;24.73;83.23
64878;HTU21D;51370;45.144;36.784;2022-08-03T04:13:24;24.76;83.20
64878;HTU21D;51370;45.144;36.784;2022-08-03T04:15:53;24.77;83.20
64878;HTU21D;51370;45.144;36.784;2022-08-03T04:18:21;24.79;83.16
64878;HTU21D;51370;45.144;36.784;2022-08-03T04:20:49;24.84;83.15
64878;HTU21D;51370;45.144;36.784;2022-08-03T04:23:17;24.88;83.06
64878;HTU21D;51370;45.144;36.784;2022-08-03T04:25:45;24.89;83.04
64878;HTU21D;51370;45.144;36.784;2022-08-03T04:28:14;24.94;82.94
64878;HTU21D;51370;45.144;36.784;2022-08-03T04:30:44;24.98;82.83
64878;HTU21D;51370;45.144;36.784;2022-08-03T04:33:14;25.01;82.77
64878;HTU21D;51370;45.144;36.784;2022-08-03T04:35:42;25.04;82.58
64878;HTU21D;51370;45.144;36.784;2022-08-03T04:38:12;25.07;82.49
64878;HTU21D;51370;45.144;36.784;2022-08-03T04:40:40;25.10;82.46
64878;HTU21D;51370;45.144;36.784;2022-08-03T04:43:08;25.15;82.39
64878;HTU21D;51370;45.144;36.784;2022-08-03T04:45:35;25.19;82.39
64878;HTU21D;51370;45.144;36.784;2022-08-03T04:48:02;25.23;82.28
64878;HTU21D;51370;45.144;36.784;2022-08-03T04:50:28;25.25;82.07
64878;HTU21D;51370;45.144;36.784;2022-08-03T04:53:05;25.29;81.90
64878;HTU21D;51370;45.144;36.784;2022-08-03T04:55:32;25.32;81.88
64878;HTU21D;51370;45.144;36.784;2022-08-03T04:57:59;25.34;81.72
64878;HTU21D;51370;45.144;36.784;2022-08-03T05:00:26;25.37;81.68
64878;HTU21D;51370;45.144;36.784;2022-08-03T05:02:52;25.42;81.66
64878;HTU21D;51370;45.144;36.784;2022-08-03T05:05:19;25.46;81.49
64878;HTU21D;51370;45.144;36.784;2022-08-03T05:07:45;25.49;81.46
64878;HTU21D;51370;45.144;36.784;2022-08-03T05:10:12;25.52;81.20
64878;HTU21D;51370;45.144;36.784;2022-08-03T05:12:38;25.56;80.96
64878;HTU21D;51370;45.144;36.784;2022-08-03T05:15:05;25.60;80.58
64878;HTU21D;51370;45.144;36.784;2022-08-03T05:17:31;25.64;80.48
64878;HTU21D;51370;45.144;36.784;2022-08-03T05:19:59;25.66;80.34
64878;HTU21D;51370;45.144;36.784;2022-08-03T05:22:25;25.71;80.32
64878;HTU21D;51370;45.144;36.784;2022-08-03T05:24:52;25.74;80.00
64878;HTU21D;51370;45.144;36.784;2022-08-03T05:27:18;25.78;79.96
64878;HTU21D;51370;45.144;36.784;2022-08-03T05:29:45;25.83;79.72
64878;HTU21D;51370;45.144;36.784;2022-08-03T05:32:11;25.88;79.09
64878;HTU21D;51370;45.144;36.784;2022-08-03T05:34:37;25.91;78.70
64878;HTU21D;51370;45.144;36.784;2022-08-03T05:37:03;25.95;78.56
64878;HTU21D;51370;45.144;36.784;2022-08-03T05:39:29;25.98;78.03
64878;HTU21D;51370;45.144;36.784;2022-08-03T05:41:55;26.01;77.96
64878;HTU21D;51370;45.144;36.784;2022-08-03T05:44:21;26.01;77.79
64878;HTU21D;51370;45.144;36.784;2022-08-03T05:46:50;26.05;77.81
64878;HTU21D;51370;45.144;36.784;2022-08-03T05:49:17;26.08;77.60
64878;HTU21D;51370;45.144;36.784;2022-08-03T05:51:43;26.13;77.25
64878;HTU21D;51370;45.144;36.784;2022-08-03T05:54:09;26.19;76.53
64878;HTU21D;51370;45.144;36.784;2022-08-03T05:56:36;26.23;75.92
64878;HTU21D;51370;45.144;36.784;2022-08-03T05:59:02;26.24;75.74
64878;HTU21D;51370;45.144;36.784;2022-08-03T06:01:28;26.26;75.86
64878;HTU21D;51370;45.144;36.784;2022-08-03T06:03:57;26.28;75.74
64878;HTU21D;51370;45.144;36.784;2022-08-03T06:06:24;26.28;75.77
64878;HTU21D;51370;45.144;36.784;2022-08-03T06:08:50;26.32;75.28
64878;HTU21D;51370;45.144;36.784;2022-08-03T06:11:16;26.36;75.34
64878;HTU21D;51370;45.144;36.784;2022-08-03T06:13:42;26.38;75.15
64878;HTU21D;51370;45.144;36.784;2022-08-03T06:16:09;26.38;74.96
64878;HTU21D;51370;45.144;36.784;2022-08-03T06:18:35;26.41;74.58
64878;HTU21D;51370;45.144;36.784;2022-08-03T06:21:02;26.40;74.37
64878;HTU21D;51370;45.144;36.784;2022-08-03T06:23:28;26.40;74.18
64878;HTU21D;51370;45.144;36.784;2022-08-03T06:25:54;26.43;74.34
64878;HTU21D;51370;45.144;36.784;2022-08-03T06:28:20;26.50;74.39
64878;HTU21D;51370;45.144;36.784;2022-08-03T06:30:46;26.52;73.59
64878;HTU21D;51370;45.144;36.784;2022-08-03T06:33:12;26.57;73.70
64878;HTU21D;51370;45.144;36.784;2022-08-03T06:35:38;26.57;73.54
64878;HTU21D;51370;45.144;36.784;2022-08-03T06:38:04;26.60;73.78
64878;HTU21D;51370;45.144;36.784;2022-08-03T06:40:30;26.63;73.99
64878;HTU21D;51370;45.144;36.784;2022-08-03T06:42:58;26.70;73.78
64878;HTU21D;51370;45.144;36.784;2022-08-03T06:45:24;26.75;73.84
64878;HTU21D;51370;45.144;36.784;2022-08-03T06:48:05;26.73;73.53
64878;HTU21D;51370;45.144;36.784;2022-08-03T06:50:32;26.79;73.42
64878;HTU21D;51370;45.144;36.784;2022-08-03T06:52:59;26.82;73.39
64878;HTU21D;51370;45.144;36.784;2022-08-03T06:55:25;26.90;73.28
64878;HTU21D;51370;45.144;36.784;2022-08-03T06:57:52;26.97;72.90
64878;HTU21D;51370;45.144;36.784;2022-08-03T07:00:18;27.04;72.91
64878;HTU21D;51370;45.144;36.784;2022-08-03T07:02:44;27.08;72.35
64878;HTU21D;51370;45.144;36.784;2022-08-03T07:05:11;27.13;72.23
64878;HTU21D;51370;45.144;36.784;2022-08-03T07:07:37;27.20;71.56
64878;HTU21D;51370;45.144;36.784;2022-08-03T07:10:04;27.28;71.48
64878;HTU21D;51370;45.144;36.784;2022-08-03T07:12:31;27.36;71.67
64878;HTU21D;51370;45.144;36.784;2022-08-03T07:14:59;27.45;71.31
64878;HTU21D;51370;45.144;36.784;2022-08-03T07:17:25;27.52;70.24
64878;HTU21D;51370;45.144;36.784;2022-08-03T07:19:51;27.54;70.26
64878;HTU21D;51370;45.144;36.784;2022-08-03T07:22:17;27.57;70.23
64878;HTU21D;51370;45.144;36.784;2022-08-03T07:24:43;27.66;69.30
64878;HTU21D;51370;45.144;36.784;2022-08-03T07:27:10;27.69;69.36
64878;HTU21D;51370;45.144;36.784;2022-08-03T07:29:36;27.78;69.61
64878;HTU21D;51370;45.144;36.784;2022-08-03T07:32:03;27.87;69.57
64878;HTU21D;51370;45.144;36.784;2022-08-03T07:34:30;27.91;69.07
64878;HTU21D;51370;45.144;36.784;2022-08-03T07:36:56;27.91;69.16
64878;HTU21D;51370;45.144;36.784;2022-08-03T07:39:22;27.91;69.36
64878;HTU21D;51370;45.144;36.784;2022-08-03T07:41:48;27.94;69.31
64878;HTU21D;51370;45.144;36.784;2022-08-03T07:44:18;27.95;69.26
64878;HTU21D;51370;45.144;36.784;2022-08-03T07:46:44;27.96;68.52
64878;HTU21D;51370;45.144;36.784;2022-08-03T07:49:10;27.95;68.99
64878;HTU21D;51370;45.144;36.784;2022-08-03T07:51:36;27.96;69.05
64878;HTU21D;51370;45.144;36.784;2022-08-03T07:54:03;27.97;68.41
64878;HTU21D;51370;45.144;36.784;2022-08-03T07:56:29;27.98;68.41
64878;HTU21D;51370;45.144;36.784;2022-08-03T07:58:55;27.98;68.42
64878;HTU21D;51370;45.144;36.784;2022-08-03T08:01:22;28.04;68.45
64878;HTU21D;51370;45.144;36.784;2022-08-03T08:03:49;28.05;68.34
64878;HTU21D;51370;45.144;36.784;2022-08-03T08:06:16;28.04;67.78
64878;HTU21D;51370;45.144;36.784;2022-08-03T08:08:43;28.00;67.75
64878;HTU21D;51370;45.144;36.784;2022-08-03T08:11:09;27.98;67.85
64878;HTU21D;51370;45.144;36.784;2022-08-03T08:13:35;27.95;67.07
64878;HTU21D;51370;45.144;36.784;2022-08-03T08:16:03;27.94;67.67
64878;HTU21D;51370;45.144;36.784;2022-08-03T08:18:30;27.98;67.37
64878;HTU21D;51370;45.144;36.784;2022-08-03T08:20:56;27.95;67.30
64878;HTU21D;51370;45.144;36.784;2022-08-03T08:23:22;27.91;67.17
64878;HTU21D;51370;45.144;36.784;2022-08-03T08:25:50;27.90;67.17
64878;HTU21D;51370;45.144;36.784;2022-08-03T08:28:19;27.93;67.25
64878;HTU21D;51370;45.144;36.784;2022-08-03T08:30:45;27.91;67.14
64878;HTU21D;51370;45.144;36.784;2022-08-03T08:33:12;27.93;67.04
64878;HTU21D;51370;45.144;36.784;2022-08-03T08:35:38;28.00;66.81
64878;HTU21D;51370;45.144;36.784;2022-08-03T08:38:04;28.01;66.68
64878;HTU21D;51370;45.144;36.784;2022-08-03T08:40:30;28.02;66.75
64878;HTU21D;51370;45.144;36.784;2022-08-03T08:42:56;28.06;66.49
64878;HTU21D;51370;45.144;36.784;2022-08-03T08:45:22;28.04;66.45
64878;HTU21D;51370;45.144;36.784;2022-08-03T08:47:49;28.05;66.62
64878;HTU21D;51370;45.144;36.784;2022-08-03T08:50:20;28.04;66.15
64878;HTU21D;51370;45.144;36.784;2022-08-03T08:52:48;28.03;66.20
64878;HTU21D;51370;45.144;36.784;2022-08-03T08:55:20;28.04;66.35
64878;HTU21D;51370;45.144;36.784;2022-08-03T08:57:58;28.03;66.63
64878;HTU21D;51370;45.144;36.784;2022-08-03T09:00:26;28.10;66.69
64878;HTU21D;51370;45.144;36.784;2022-08-03T09:02:52;28.10;65.96
64878;HTU21D;51370;45.144;36.784;2022-08-03T09:05:19;28.11;66.33
64878;HTU21D;51370;45.144;36.784;2022-08-03T09:07:46;28.15;66.46
64878;HTU21D;51370;45.144;36.784;2022-08-03T09:10:15;28.20;66.43
64878;HTU21D;51370;45.144;36.784;2022-08-03T09:12:47;28.28;66.55
64878;HTU21D;51370;45.144;36.784;2022-08-03T09:15:27;28.33;66.38
64878;HTU21D;51370;45.144;36.784;2022-08-03T09:18:00;28.39;66.01
64878;HTU21D;51370;45.144;36.784;2022-08-03T09:20:33;28.39;65.53
64878;HTU21D;51370;45.144;36.784;2022-08-03T09:23:08;28.38;65.89
64878;HTU21D;51370;45.144;36.784;2022-08-03T09:25:41;28.40;66.11
64878;HTU21D;51370;45.144;36.784;2022-08-03T09:28:09;28.47;65.85
64878;HTU21D;51370;45.144;36.784;2022-08-03T09:30:37;28.53;65.88
64878;HTU21D;51370;45.144;36.784;2022-08-03T09:33:07;28.54;65.71
64878;HTU21D;51370;45.144;36.784;2022-08-03T09:35:47;28.59;66.12
64878;HTU21D;51370;45.144;36.784;2022-08-03T09:38:17;28.78;66.25
64878;HTU21D;51370;45.144;36.784;2022-08-03T09:40:44;28.95;65.50
64878;HTU21D;51370;45.144;36.784;2022-08-03T09:43:11;29.03;65.62
64878;HTU21D;51370;45.144;36.784;2022-08-03T09:45:38;29.18;65.40
64878;HTU21D;51370;45.144;36.784;2022-08-03T09:48:25;29.34;65.34
64878;HTU21D;51370;45.144;36.784;2022-08-03T09:51:02;29.61;64.79
64878;HTU21D;51370;45.144;36.784;2022-08-03T09:53:28;29.80;64.09
64878;HTU21D;51370;45.144;36.784;2022-08-03T09:56:01;29.86;62.99
64878;HTU21D;51370;45.144;36.784;2022-08-03T09:58:29;29.92;62.89
64878;HTU21D;51370;45.144;36.784;2022-08-03T10:00:56;29.97;62.77
64878;HTU21D;51370;45.144;36.784;2022-08-03T10:03:24;30.06;62.14
64878;HTU21D;51370;45.144;36.784;2022-08-03T10:05:50;30.09;61.54
64878;HTU21D;51370;45.144;36.784;2022-08-03T10:08:18;30.16;62.10
64878;HTU21D;51370;45.144;36.784;2022-08-03T10:10:46;30.31;61.47
64878;HTU21D;51370;45.144;36.784;2022-08-03T10:13:13;30.49;61.55
64878;HTU21D;51370;45.144;36.784;2022-08-03T10:15:40;30.93;60.63
64878;HTU21D;51370;45.144;36.784;2022-08-03T10:18:06;31.53;58.71
64878;HTU21D;51370;45.144;36.784;2022-08-03T10:20:40;31.86;57.86
64878;HTU21D;51370;45.144;36.784;2022-08-03T10:23:07;31.48;59.39
64878;HTU21D;51370;45.144;36.784;2022-08-03T10:25:36;31.35;59.76
64878;HTU21D;51370;45.144;36.784;2022-08-03T10:28:03;31.08;59.77
64878;HTU21D;51370;45.144;36.784;2022-08-03T10:30:32;30.54;60.89
64878;HTU21D;51370;45.144;36.784;2022-08-03T10:33:20;30.03;61.68
64878;HTU21D;51370;45.144;36.784;2022-08-03T10:35:51;29.91;62.74
64878;HTU21D;51370;45.144;36.784;2022-08-03T10:38:21;30.37;61.31
64878;HTU21D;51370;45.144;36.784;2022-08-03T10:40:53;30.66;60.86
64878;HTU21D;51370;45.144;36.784;2022-08-03T10:43:31;30.33;61.19
64878;HTU21D;51370;45.144;36.784;2022-08-03T10:45:59;29.83;62.66
64878;HTU21D;51370;45.144;36.784;2022-08-03T10:48:28;29.44;63.87
64878;HTU21D;51370;45.144;36.784;2022-08-03T10:50:54;29.14;64.38
64878;HTU21D;51370;45.144;36.784;2022-08-03T10:53:37;28.80;65.15
64878;HTU21D;51370;45.144;36.784;2022-08-03T10:56:05;28.68;65.90
64878;HTU21D;51370;45.144;36.784;2022-08-03T10:58:51;28.55;66.43
64878;HTU21D;51370;45.144;36.784;2022-08-03T11:01:19;28.45;66.96
64878;HTU21D;51370;45.144;36.784;2022-08-03T11:06:30;28.35;67.54
64878;HTU21D;51370;45.144;36.784;2022-08-03T11:11:39;28.29;67.49
64878;HTU21D;51370;45.144;36.784;2022-08-03T11:16:47;30.89;62.21
64878;HTU21D;51370;45.144;36.784;2022-08-03T11:19:19;32.39;58.47
64878;HTU21D;51370;45.144;36.784;2022-08-03T11:35:29;35.27;53.39
64878;HTU21D;51370;45.144;36.784;2022-08-03T11:40:51;32.87;57.54
64878;HTU21D;51370;45.144;36.784;2022-08-03T11:46:08;31.39;60.47
64878;HTU21D;51370;45.144;36.784;2022-08-03T11:48:47;30.91;61.62
64878;HTU21D;51370;45.144;36.784;2022-08-03T11:51:23;30.61;62.16
64878;HTU21D;51370;45.144;36.784;2022-08-03T11:54:00;30.32;62.73
64878;HTU21D;51370;45.144;36.784;2022-08-03T11:56:28;30.03;63.16
64878;HTU21D;51370;45.144;36.784;2022-08-03T11:59:08;29.77;63.73
64878;HTU21D;51370;45.144;36.784;2022-08-03T12:01:34;29.61;64.05
64878;HTU21D;51370;45.144;36.784;2022-08-03T12:04:03;29.57;64.26
64878;HTU21D;51370;45.144;36.784;2022-08-03T12:06:30;29.56;64.23
64878;HTU21D;51370;45.144;36.784;2022-08-03T12:08:56;29.44;64.27
64878;HTU21D;51370;45.144;36.784;2022-08-03T12:11:22;29.35;64.40
64878;HTU21D;51370;45.144;36.784;2022-08-03T12:13:49;29.26;64.27
64878;HTU21D;51370;45.144;36.784;2022-08-03T12:16:20;29.04;64.51
64878;HTU21D;51370;45.144;36.784;2022-08-03T12:18:57;28.86;64.85
64878;HTU21D;51370;45.144;36.784;2022-08-03T12:21:23;28.74;65.14
64878;HTU21D;51370;45.144;36.784;2022-08-03T12:23:50;28.63;65.53
64878;HTU21D;51370;45.144;36.784;2022-08-03T12:26:20;28.50;65.61
64878;HTU21D;51370;45.144;36.784;2022-08-03T12:28:47;28.45;65.91
64878;HTU21D;51370;45.144;36.784;2022-08-03T12:31:13;28.46;66.09
64878;HTU21D;51370;45.144;36.784;2022-08-03T12:34:01;28.61;66.14
64878;HTU21D;51370;45.144;36.784;2022-08-03T12:36:29;28.85;65.71
64878;HTU21D;51370;45.144;36.784;2022-08-03T12:39:04;28.91;65.72
64878;HTU21D;51370;45.144;36.784;2022-08-03T12:41:35;28.88;65.82
64878;HTU21D;51370;45.144;36.784;2022-08-03T12:44:04;28.76;66.07
64878;HTU21D;51370;45.144;36.784;2022-08-03T12:46:36;28.63;66.36
64878;HTU21D;51370;45.144;36.784;2022-08-03T12:49:04;28.59;66.75
64878;HTU21D;51370;45.144;36.784;2022-08-03T12:51:36;28.61;66.75
64878;HTU21D;51370;45.144;36.784;2022-08-03T12:54:04;28.71;67.07
64878;HTU21D;51370;45.144;36.784;2022-08-03T12:56:30;29.17;66.19
64878;HTU21D;51370;45.144;36.784;2022-08-03T12:58:56;29.72;65.21
64878;HTU21D;51370;45.144;36.784;2022-08-03T13:01:22;30.06;63.96
64878;HTU21D;51370;45.144;36.784;2022-08-03T13:03:50;30.37;64.21
64878;HTU21D;51370;45.144;36.784;2022-08-03T13:06:23;30.80;63.40
64878;HTU21D;51370;45.144;36.784;2022-08-03T13:09:04;31.21;62.88
64878;HTU21D;51370;45.144;36.784;2022-08-03T13:11:31;31.38;61.28
64878;HTU21D;51370;45.144;36.784;2022-08-03T13:13:57;31.48;60.98
64878;HTU21D;51370;45.144;36.784;2022-08-03T13:16:23;31.63;60.52
64878;HTU21D;51370;45.144;36.784;2022-08-03T13:18:50;31.71;60.42
64878;HTU21D;51370;45.144;36.784;2022-08-03T13:21:19;31.56;59.93
64878;HTU21D;51370;45.144;36.784;2022-08-03T13:23:45;31.38;60.05
64878;HTU21D;51370;45.144;36.784;2022-08-03T13:26:11;31.26;60.12
64878;HTU21D;51370;45.144;36.784;2022-08-03T13:28:38;31.20;60.51
64878;HTU21D;51370;45.144;36.784;2022-08-03T13:31:05;31.26;60.38
64878;HTU21D;51370;45.144;36.784;2022-08-03T13:33:31;31.19;60.44
64878;HTU21D;51370;45.144;36.784;2022-08-03T13:35:58;31.30;60.32
64878;HTU21D;51370;45.144;36.784;2022-08-03T13:38:24;31.14;60.30
64878;HTU21D;51370;45.144;36.784;2022-08-03T13:40:51;30.84;60.96
64878;HTU21D;51370;45.144;36.784;2022-08-03T13:43:19;30.74;61.69
64878;HTU21D;51370;45.144;36.784;2022-08-03T13:45:45;30.81;61.85
64878;HTU21D;51370;45.144;36.784;2022-08-03T13:48:11;31.06;61.66
64878;HTU21D;51370;45.144;36.784;2022-08-03T13:50:37;31.24;61.14
64878;HTU21D;51370;45.144;36.784;2022-08-03T13:53:03;31.46;61.19
64878;HTU21D;51370;45.144;36.784;2022-08-03T13:55:29;31.66;60.88
64878;HTU21D;51370;45.144;36.784;2022-08-03T13:57:55;31.76;60.89
64878;HTU21D;51370;45.144;36.784;2022-08-03T14:00:21;31.83;60.62
64878;HTU21D;51370;45.144;36.784;2022-08-03T14:02:51;31.74;60.66
64878;HTU21D;51370;45.144;36.784;2022-08-03T14:05:17;31.73;60.33
64878;HTU21D;51370;45.144;36.784;2022-08-03T14:07:43;31.58;60.65
64878;HTU21D;51370;45.144;36.784;2022-08-03T14:10:09;31.41;60.93
64878;HTU21D;51370;45.144;36.784;2022-08-03T14:12:35;31.24;60.99
64878;HTU21D;51370;45.144;36.784;2022-08-03T14:15:01;31.09;61.44
64878;HTU21D;51370;45.144;36.784;2022-08-03T14:17:27;30.95;61.47
64878;HTU21D;51370;45.144;36.784;2022-08-03T14:19:53;30.82;61.68
64878;HTU21D;51370;45.144;36.784;2022-08-03T14:22:19;30.61;62.18
64878;HTU21D;51370;45.144;36.784;2022-08-03T14:24:45;30.38;62.15
64878;HTU21D;51370;45.144;36.784;2022-08-03T14:27:12;30.07;62.54
64878;HTU21D;51370;45.144;36.784;2022-08-03T14:29:37;29.97;63.20
64878;HTU21D;51370;45.144;36.784;2022-08-03T14:32:03;30.04;63.30
64878;HTU21D;51370;45.144;36.784;2022-08-03T14:34:29;30.19;63.48
64878;HTU21D;51370;45.144;36.784;2022-08-03T14:36:55;30.33;63.31
64878;HTU21D;51370;45.144;36.784;2022-08-03T14:39:21;30.51;63.02
64878;HTU21D;51370;45.144;36.784;2022-08-03T14:41:47;30.76;62.89
64878;HTU21D;51370;45.144;36.784;2022-08-03T14:44:13;30.90;62.44
64878;HTU21D;51370;45.144;36.784;2022-08-03T14:46:40;30.90;62.29
64878;HTU21D;51370;45.144;36.784;2022-08-03T14:49:06;30.79;62.62
64878;HTU21D;51370;45.144;36.784;2022-08-03T14:51:32;30.75;62.73
64878;HTU21D;51370;45.144;36.784;2022-08-03T14:53:58;30.84;62.53
64878;HTU21D;51370;45.144;36.784;2022-08-03T14:56:24;30.97;62.36
64878;HTU21D;51370;45.144;36.784;2022-08-03T14:58:50;31.13;62.08
64878;HTU21D;51370;45.144;36.784;2022-08-03T15:01:17;31.25;61.76
64878;HTU21D;51370;45.144;36.784;2022-08-03T15:03:42;31.29;61.45
64878;HTU21D;51370;45.144;36.784;2022-08-03T15:06:11;31.25;61.62
64878;HTU21D;51370;45.144;36.784;2022-08-03T15:08:37;31.28;61.41
64878;HTU21D;51370;45.144;36.784;2022-08-03T15:11:03;31.22;61.30
64878;HTU21D;51370;45.144;36.784;2022-08-03T15:13:29;31.06;61.05
64878;HTU21D;51370;45.144;36.784;2022-08-03T15:15:55;30.98;61.45
64878;HTU21D;51370;45.144;36.784;2022-08-03T15:18:22;30.84;61.02
64878;HTU21D;51370;45.144;36.784;2022-08-03T15:20:48;30.66;60.44
64878;HTU21D;51370;45.144;36.784;2022-08-03T15:23:16;30.45;60.42
64878;HTU21D;51370;45.144;36.784;2022-08-03T15:25:43;30.22;60.12
64878;HTU21D;51370;45.144;36.784;2022-08-03T15:28:09;30.04;60.22
64878;HTU21D;51370;45.144;36.784;2022-08-03T15:30:35;29.88;60.44
64878;HTU21D;51370;45.144;36.784;2022-08-03T15:33:03;29.72;60.55
64878;HTU21D;51370;45.144;36.784;2022-08-03T15:35:29;29.58;60.86
64878;HTU21D;51370;45.144;36.784;2022-08-03T15:37:55;29.48;61.12
64878;HTU21D;51370;45.144;36.784;2022-08-03T15:40:21;29.43;61.24
64878;HTU21D;51370;45.144;36.784;2022-08-03T15:42:47;29.37;61.27
64878;HTU21D;51370;45.144;36.784;2022-08-03T15:45:13;29.33;61.54
64878;HTU21D;51370;45.144;36.784;2022-08-03T15:47:39;29.28;61.46
64878;HTU21D;51370;45.144;36.784;2022-08-03T15:50:05;29.20;61.48